Terminal Aerodrome Forecast
Issued by NWS

Home | Current Version | Previous Version | Text Only | Print | Product List | Glossary On
Versions: 1 2 3 4 5 6 7 8 9 10 11 12 13 14 15 16 17 18 19
318
FTUS45 KPSR 010520
TAFBLH
TAF
KBLH 010520Z 0106/0206 34008KT P6SM SCT120
     FM011400 VRB04KT P6SM FEW080=

USA.gov is the U.S. government's official web portal to all federal, state and local government web resources and services.